ASK57ND EPWA-LEMD
Flight info
| Callsign | ASK57ND |
|---|---|
| Flight time | N/A |
| Altitude | 36000 |
| Route | SOXER N869 TOMTI DCT ASTEL DCT KONAR DCT OKG DCT AMOSA DCT DKB DCT TEDGO N869 NATOR DCT LUTIX DCT BENOT DCT NEMOS/N0442F370 DCT NINTU DCT MEBAK DCT REPSI DCT LERGA DCT MINSO DCT NARAK DCT AGN DCT MAQAB DCT TIVLI N869 ZAR Z245 TERSA |
| Aircraft | B738/M-SDE2E3FGHIRWXY/LB1 |
Departure
| Time | N/A |
|---|---|
| Airport | Warsaw Chopin Airport (EPWA) |
Arrival
| Time | 2026-04-30 12:25 |
|---|---|
| Airport | Adolfo Suárez Madrid–Barajas Airport (LEMD) |
| Time | Latitude | Longitude | Altitude | Speed | Heading |
|---|---|---|---|---|---|
| 2026-04-30 10:24 | 47.12879 | 7.30658 | 36258 ft | 454 kts | 233° |
| 2026-04-30 10:24 | 47.10965 | 7.26969 | 36241 ft | 454 kts | 234° |
| 2026-04-30 10:24 | 47.07082 | 7.19648 | 36213 ft | 455 kts | 232° |
| 2026-04-30 10:25 | 47.03121 | 7.12385 | 36227 ft | 457 kts | 232° |
| 2026-04-30 10:25 | 46.99109 | 7.05082 | 36511 ft | 460 kts | 232° |
| 2026-04-30 10:26 | 46.97106 | 7.01438 | 36802 ft | 458 kts | 232° |
| 2026-04-30 10:26 | 46.95111 | 6.97808 | 37050 ft | 457 kts | 232° |
| 2026-04-30 10:26 | 46.93121 | 6.94189 | 37199 ft | 457 kts | 232° |
| 2026-04-30 10:26 | 46.91121 | 6.90559 | 37202 ft | 460 kts | 232° |
| 2026-04-30 10:27 | 46.87105 | 6.83291 | 37211 ft | 458 kts | 232° |
| 2026-04-30 10:27 | 46.83111 | 6.76081 | 37208 ft | 455 kts | 232° |
| 2026-04-30 10:28 | 46.79135 | 6.68916 | 37212 ft | 453 kts | 232° |
| 2026-04-30 10:28 | 46.75168 | 6.61787 | 37221 ft | 451 kts | 232° |
| 2026-04-30 10:29 | 46.71216 | 6.54701 | 37204 ft | 450 kts | 232° |
| 2026-04-30 10:29 | 46.67278 | 6.47657 | 37186 ft | 447 kts | 232° |
| 2026-04-30 10:30 | 46.63381 | 6.40707 | 37197 ft | 445 kts | 232° |
| 2026-04-30 10:30 | 46.59468 | 6.33744 | 37202 ft | 444 kts | 232° |
| 2026-04-30 10:31 | 46.55557 | 6.26801 | 37199 ft | 444 kts | 232° |
| 2026-04-30 10:31 | 46.51636 | 6.19860 | 37201 ft | 445 kts | 232° |
| 2026-04-30 10:32 | 46.47694 | 6.12898 | 37200 ft | 447 kts | 232° |
| 2026-04-30 10:32 | 46.43733 | 6.05921 | 37185 ft | 449 kts | 232° |
| 2026-04-30 10:33 | 46.39758 | 5.98937 | 37222 ft | 450 kts | 232° |
| 2026-04-30 10:33 | 46.35789 | 5.91983 | 37185 ft | 443 kts | 232° |
| 2026-04-30 10:34 | 46.31888 | 5.85164 | 37191 ft | 439 kts | 232° |
| 2026-04-30 10:34 | 46.27996 | 5.78374 | 37192 ft | 438 kts | 232° |
| 2026-04-30 10:35 | 46.24105 | 5.71603 | 37176 ft | 438 kts | 232° |
| 2026-04-30 10:35 | 46.20211 | 5.64843 | 37174 ft | 438 kts | 232° |
| 2026-04-30 10:36 | 46.16311 | 5.58087 | 37156 ft | 438 kts | 232° |
| 2026-04-30 10:36 | 46.12585 | 5.51140 | 37143 ft | 437 kts | 237° |
| 2026-04-30 10:37 | 46.09154 | 5.43907 | 37147 ft | 437 kts | 237° |
| 2026-04-30 10:37 | 46.05735 | 5.36666 | 37135 ft | 437 kts | 237° |
| 2026-04-30 10:38 | 46.02285 | 5.29455 | 37132 ft | 437 kts | 237° |
| 2026-04-30 10:38 | 45.98815 | 5.22265 | 37126 ft | 437 kts | 237° |
| 2026-04-30 10:39 | 45.95344 | 5.15096 | 37127 ft | 437 kts | 237° |
| 2026-04-30 10:39 | 45.91869 | 5.07939 | 37128 ft | 436 kts | 236° |
| 2026-04-30 10:40 | 45.89073 | 5.00331 | 37143 ft | 431 kts | 259° |
| 2026-04-30 10:40 | 45.88731 | 4.91789 | 37135 ft | 430 kts | 278° |
| 2026-04-30 10:41 | 45.89665 | 4.83309 | 37129 ft | 430 kts | 279° |
| 2026-04-30 10:41 | 45.90683 | 4.74835 | 37123 ft | 431 kts | 280° |
| 2026-04-30 10:42 | 45.91705 | 4.66412 | 37121 ft | 431 kts | 279° |
| 2026-04-30 10:42 | 45.92734 | 4.57916 | 37116 ft | 432 kts | 279° |
| 2026-04-30 10:43 | 45.93760 | 4.49412 | 37118 ft | 432 kts | 279° |
| 2026-04-30 10:43 | 45.94241 | 4.40833 | 37106 ft | 432 kts | 264° |
| 2026-04-30 10:44 | 45.93612 | 4.32256 | 37113 ft | 432 kts | 258° |
| 2026-04-30 10:44 | 45.91477 | 4.24233 | 37114 ft | 432 kts | 240° |
| 2026-04-30 10:45 | 45.88149 | 4.17050 | 37104 ft | 433 kts | 234° |
| 2026-04-30 10:45 | 45.84585 | 4.10092 | 37108 ft | 433 kts | 234° |
| 2026-04-30 10:46 | 45.80639 | 4.03623 | 37107 ft | 433 kts | 218° |
| 2026-04-30 10:46 | 45.75631 | 3.98826 | 37108 ft | 433 kts | 220° |
| 2026-04-30 10:47 | 45.71050 | 3.93248 | 37110 ft | 433 kts | 221° |
| 2026-04-30 10:47 | 45.66482 | 3.87645 | 37119 ft | 433 kts | 221° |
| 2026-04-30 10:48 | 45.61899 | 3.82160 | 37105 ft | 433 kts | 220° |
| 2026-04-30 10:48 | 45.57257 | 3.76683 | 37112 ft | 433 kts | 220° |
| 2026-04-30 10:49 | 45.53363 | 3.72110 | 37107 ft | 433 kts | 220° |
| 2026-04-30 10:49 | 45.48715 | 3.66664 | 37102 ft | 432 kts | 220° |
| 2026-04-30 10:50 | 45.44070 | 3.61230 | 37116 ft | 432 kts | 220° |
| 2026-04-30 10:50 | 45.39425 | 3.55808 | 37110 ft | 432 kts | 220° |
| 2026-04-30 10:51 | 45.34782 | 3.50398 | 37104 ft | 431 kts | 220° |
| 2026-04-30 10:51 | 45.30139 | 3.45000 | 37111 ft | 431 kts | 219° |
| 2026-04-30 10:52 | 45.25490 | 3.39609 | 37111 ft | 432 kts | 219° |
| 2026-04-30 10:52 | 45.20836 | 3.34222 | 37113 ft | 432 kts | 219° |
| 2026-04-30 10:53 | 45.16176 | 3.28840 | 37115 ft | 432 kts | 219° |
| 2026-04-30 10:53 | 45.11516 | 3.23471 | 37121 ft | 432 kts | 219° |
| 2026-04-30 10:54 | 45.06856 | 3.18112 | 37107 ft | 432 kts | 219° |
| 2026-04-30 10:54 | 45.02196 | 3.12764 | 37123 ft | 431 kts | 219° |
| 2026-04-30 10:55 | 44.97577 | 3.07476 | 37118 ft | 430 kts | 219° |
| 2026-04-30 10:55 | 44.92938 | 3.02174 | 37117 ft | 429 kts | 219° |
| 2026-04-30 10:56 | 44.88306 | 2.96892 | 37124 ft | 427 kts | 219° |
| 2026-04-30 10:56 | 44.83993 | 2.91181 | 37126 ft | 425 kts | 232° |
| 2026-04-30 10:57 | 44.80730 | 2.84256 | 37121 ft | 424 kts | 237° |
| 2026-04-30 10:57 | 44.77563 | 2.77267 | 37133 ft | 423 kts | 237° |
| 2026-04-30 10:58 | 44.74373 | 2.70307 | 37131 ft | 423 kts | 237° |
| 2026-04-30 10:58 | 44.71166 | 2.63369 | 37123 ft | 423 kts | 236° |
| 2026-04-30 10:59 | 44.67944 | 2.56432 | 37133 ft | 424 kts | 236° |
| 2026-04-30 10:59 | 44.64704 | 2.49474 | 37125 ft | 426 kts | 236° |
| 2026-04-30 11:00 | 44.61453 | 2.42508 | 37128 ft | 427 kts | 236° |
| 2026-04-30 11:00 | 44.58188 | 2.35529 | 37140 ft | 428 kts | 236° |
| 2026-04-30 11:01 | 44.54911 | 2.28538 | 37139 ft | 429 kts | 236° |
| 2026-04-30 11:01 | 44.51620 | 2.21539 | 37121 ft | 430 kts | 236° |
| 2026-04-30 11:02 | 44.48323 | 2.14539 | 37121 ft | 431 kts | 236° |
| 2026-04-30 11:02 | 44.45017 | 2.07539 | 37111 ft | 431 kts | 236° |
| 2026-04-30 11:03 | 44.41708 | 2.00551 | 37108 ft | 431 kts | 236° |
| 2026-04-30 11:04 | 44.36741 | 1.90090 | 37111 ft | 430 kts | 236° |
| 2026-04-30 11:04 | 44.33437 | 1.83150 | 37097 ft | 428 kts | 236° |
| 2026-04-30 11:05 | 44.30140 | 1.76241 | 37093 ft | 426 kts | 236° |
| 2026-04-30 11:05 | 44.26926 | 1.69380 | 37094 ft | 424 kts | 237° |
| 2026-04-30 11:06 | 44.23761 | 1.62450 | 37103 ft | 423 kts | 237° |
| 2026-04-30 11:06 | 44.20607 | 1.55559 | 37098 ft | 421 kts | 237° |
| 2026-04-30 11:07 | 44.17453 | 1.48708 | 37109 ft | 419 kts | 237° |
| 2026-04-30 11:07 | 44.14299 | 1.41885 | 37100 ft | 418 kts | 237° |
| 2026-04-30 11:08 | 44.11151 | 1.35093 | 37104 ft | 417 kts | 237° |
| 2026-04-30 11:08 | 44.08004 | 1.28319 | 37105 ft | 417 kts | 237° |
| 2026-04-30 11:09 | 44.04854 | 1.21552 | 37106 ft | 417 kts | 237° |
| 2026-04-30 11:09 | 44.01700 | 1.14792 | 37096 ft | 417 kts | 237° |
| 2026-04-30 11:10 | 43.98537 | 1.08029 | 37103 ft | 418 kts | 237° |
| 2026-04-30 11:10 | 43.95361 | 1.01253 | 37104 ft | 419 kts | 237° |
| 2026-04-30 11:11 | 43.92174 | 0.94466 | 37098 ft | 421 kts | 237° |
| 2026-04-30 11:11 | 43.88897 | 0.87732 | 37090 ft | 422 kts | 231° |
| 2026-04-30 11:12 | 43.84689 | 0.82057 | 37101 ft | 424 kts | 222° |
| 2026-04-30 11:12 | 43.80248 | 0.76678 | 37090 ft | 424 kts | 223° |
| 2026-04-30 11:13 | 43.75813 | 0.71271 | 37097 ft | 425 kts | 223° |
| 2026-04-30 11:13 | 43.71385 | 0.65837 | 37110 ft | 426 kts | 223° |
| 2026-04-30 11:14 | 43.66941 | 0.60382 | 37099 ft | 428 kts | 223° |
| 2026-04-30 11:14 | 43.62498 | 0.54939 | 37084 ft | 427 kts | 224° |
| 2026-04-30 11:15 | 43.58066 | 0.49521 | 37093 ft | 424 kts | 224° |
| 2026-04-30 11:15 | 43.53657 | 0.44144 | 37097 ft | 422 kts | 224° |
| 2026-04-30 11:16 | 43.49295 | 0.38833 | 37099 ft | 420 kts | 224° |
| 2026-04-30 11:16 | 43.44923 | 0.33518 | 37118 ft | 418 kts | 224° |
| 2026-04-30 11:17 | 43.40563 | 0.28232 | 37103 ft | 416 kts | 224° |
| 2026-04-30 11:17 | 43.36226 | 0.22979 | 37102 ft | 414 kts | 224° |
| 2026-04-30 11:18 | 43.31910 | 0.17757 | 37105 ft | 413 kts | 224° |
| 2026-04-30 11:18 | 43.25451 | 0.09958 | 37102 ft | 412 kts | 224° |
| 2026-04-30 11:19 | 43.21150 | 0.04777 | 37099 ft | 411 kts | 224° |
| 2026-04-30 11:19 | 43.16849 | -0.00393 | 37105 ft | 411 kts | 224° |
| 2026-04-30 11:20 | 43.12553 | -0.05548 | 37103 ft | 411 kts | 224° |
| 2026-04-30 11:20 | 43.08270 | -0.10677 | 37108 ft | 413 kts | 224° |
| 2026-04-30 11:21 | 43.03937 | -0.15856 | 37103 ft | 414 kts | 224° |
| 2026-04-30 11:21 | 42.99597 | -0.21033 | 37106 ft | 414 kts | 225° |
| 2026-04-30 11:22 | 42.95254 | -0.26203 | 37093 ft | 414 kts | 225° |
| 2026-04-30 11:22 | 42.90921 | -0.31352 | 37099 ft | 413 kts | 224° |
| 2026-04-30 11:23 | 42.86591 | -0.36490 | 37063 ft | 412 kts | 224° |
| 2026-04-30 11:24 | 42.79880 | -0.43807 | 37096 ft | 417 kts | 214° |
| 2026-04-30 11:24 | 42.74517 | -0.46970 | 37102 ft | 422 kts | 205° |
| 2026-04-30 11:25 | 42.66265 | -0.51206 | 37089 ft | 423 kts | 206° |
| 2026-04-30 11:26 | 42.55309 | -0.56916 | 37096 ft | 422 kts | 206° |
| 2026-04-30 11:26 | 42.49819 | -0.59785 | 37097 ft | 422 kts | 206° |
| 2026-04-30 11:27 | 42.44337 | -0.62646 | 37086 ft | 422 kts | 206° |
| 2026-04-30 11:27 | 42.38850 | -0.65501 | 37077 ft | 423 kts | 206° |
| 2026-04-30 11:28 | 42.30612 | -0.69779 | 37088 ft | 423 kts | 206° |
| 2026-04-30 11:29 | 42.25112 | -0.72628 | 37085 ft | 423 kts | 206° |
| 2026-04-30 11:29 | 42.16875 | -0.76884 | 37069 ft | 422 kts | 207° |
| 2026-04-30 11:30 | 42.08667 | -0.81116 | 37075 ft | 420 kts | 207° |
| 2026-04-30 11:31 | 42.03207 | -0.83924 | 37077 ft | 419 kts | 207° |
| 2026-04-30 11:31 | 41.97764 | -0.86722 | 37061 ft | 418 kts | 207° |
| 2026-04-30 11:32 | 41.92372 | -0.89495 | 37067 ft | 417 kts | 207° |
| 2026-04-30 11:32 | 41.86917 | -0.92298 | 37072 ft | 416 kts | 207° |
| 2026-04-30 11:33 | 41.78840 | -0.96438 | 37085 ft | 416 kts | 207° |
| 2026-04-30 11:33 | 41.73440 | -0.99200 | 37076 ft | 415 kts | 207° |
| 2026-04-30 11:34 | 41.68050 | -1.01984 | 37073 ft | 413 kts | 211° |
| 2026-04-30 11:34 | 41.63288 | -1.06002 | 37071 ft | 400 kts | 227° |
| 2026-04-30 11:35 | 41.59198 | -1.10985 | 36975 ft | 395 kts | 227° |
| 2026-04-30 11:35 | 41.57178 | -1.13449 | 36699 ft | 389 kts | 227° |
| 2026-04-30 11:35 | 41.55194 | -1.15856 | 36305 ft | 384 kts | 227° |
| 2026-04-30 11:36 | 41.53228 | -1.18234 | 36002 ft | 379 kts | 227° |
| 2026-04-30 11:36 | 41.51278 | -1.20586 | 35605 ft | 376 kts | 227° |
| 2026-04-30 11:36 | 41.49345 | -1.22913 | 35247 ft | 373 kts | 227° |
| 2026-04-30 11:36 | 41.47421 | -1.25225 | 34863 ft | 371 kts | 227° |
| 2026-04-30 11:37 | 41.45509 | -1.27520 | 34510 ft | 368 kts | 227° |
| 2026-04-30 11:37 | 41.43611 | -1.29797 | 34152 ft | 366 kts | 227° |
| 2026-04-30 11:37 | 41.41723 | -1.32059 | 33754 ft | 364 kts | 227° |
| 2026-04-30 11:37 | 41.39873 | -1.34272 | 33364 ft | 361 kts | 227° |
| 2026-04-30 11:38 | 41.38014 | -1.36496 | 32999 ft | 358 kts | 227° |
| 2026-04-30 11:38 | 41.36167 | -1.38702 | 32644 ft | 355 kts | 226° |
| 2026-04-30 11:38 | 41.34332 | -1.40893 | 32298 ft | 353 kts | 226° |
| 2026-04-30 11:38 | 41.32514 | -1.43063 | 31946 ft | 350 kts | 226° |
| 2026-04-30 11:39 | 41.30712 | -1.45212 | 31612 ft | 347 kts | 226° |
| 2026-04-30 11:39 | 41.28919 | -1.47347 | 31274 ft | 345 kts | 226° |
| 2026-04-30 11:39 | 41.27132 | -1.49475 | 30936 ft | 343 kts | 226° |
| 2026-04-30 11:39 | 41.25933 | -1.50901 | 30712 ft | 342 kts | 226° |
| 2026-04-30 11:40 | 41.24195 | -1.52969 | 30394 ft | 340 kts | 226° |
| 2026-04-30 11:40 | 41.22410 | -1.55090 | 30064 ft | 339 kts | 226° |
| 2026-04-30 11:40 | 41.20658 | -1.57169 | 29657 ft | 337 kts | 226° |
| 2026-04-30 11:40 | 41.18943 | -1.59204 | 29293 ft | 335 kts | 226° |
| 2026-04-30 11:41 | 41.17212 | -1.61255 | 28955 ft | 331 kts | 226° |
| 2026-04-30 11:41 | 41.15501 | -1.63282 | 28606 ft | 328 kts | 226° |
| 2026-04-30 11:41 | 41.13807 | -1.65287 | 28272 ft | 326 kts | 226° |
| 2026-04-30 11:41 | 41.12120 | -1.67283 | 27926 ft | 323 kts | 226° |
| 2026-04-30 11:42 | 41.10449 | -1.69259 | 27599 ft | 320 kts | 225° |
| 2026-04-30 11:42 | 41.08792 | -1.71218 | 27265 ft | 318 kts | 225° |
| 2026-04-30 11:42 | 41.07143 | -1.73165 | 26944 ft | 317 kts | 225° |
| 2026-04-30 11:42 | 41.05504 | -1.75098 | 26625 ft | 315 kts | 225° |
| 2026-04-30 11:43 | 41.03864 | -1.77030 | 26303 ft | 315 kts | 225° |
| 2026-04-30 11:43 | 41.02229 | -1.78957 | 25980 ft | 315 kts | 225° |
| 2026-04-30 11:43 | 41.00575 | -1.80907 | 25674 ft | 324 kts | 225° |
| 2026-04-30 11:43 | 40.98868 | -1.82921 | 25345 ft | 333 kts | 225° |
| 2026-04-30 11:44 | 40.97137 | -1.84959 | 24997 ft | 333 kts | 225° |
| 2026-04-30 11:44 | 40.95405 | -1.86994 | 24652 ft | 332 kts | 225° |
| 2026-04-30 11:44 | 40.93680 | -1.89018 | 24309 ft | 331 kts | 225° |
| 2026-04-30 11:44 | 40.91961 | -1.91037 | 23976 ft | 330 kts | 225° |
| 2026-04-30 11:45 | 40.90232 | -1.93066 | 23766 ft | 339 kts | 224° |
| 2026-04-30 11:45 | 40.88417 | -1.95201 | 23544 ft | 361 kts | 224° |
| 2026-04-30 11:45 | 40.86484 | -1.97471 | 23257 ft | 383 kts | 224° |
| 2026-04-30 11:45 | 40.84464 | -1.99837 | 22805 ft | 388 kts | 224° |
| 2026-04-30 11:46 | 40.82451 | -2.02187 | 22339 ft | 384 kts | 223° |
| 2026-04-30 11:46 | 40.80463 | -2.04508 | 21864 ft | 380 kts | 224° |
| 2026-04-30 11:46 | 40.78518 | -2.06779 | 21400 ft | 377 kts | 223° |
| 2026-04-30 11:46 | 40.76563 | -2.09059 | 20932 ft | 374 kts | 223° |
| 2026-04-30 11:47 | 40.74727 | -2.11450 | 20460 ft | 369 kts | 235° |
| 2026-04-30 11:47 | 40.73580 | -2.14429 | 20059 ft | 363 kts | 253° |
| 2026-04-30 11:47 | 40.73095 | -2.17659 | 19806 ft | 357 kts | 266° |
| 2026-04-30 11:47 | 40.73262 | -2.20926 | 19560 ft | 361 kts | 277° |
| 2026-04-30 11:48 | 40.73512 | -2.24251 | 19137 ft | 370 kts | 265° |
| 2026-04-30 11:48 | 40.72877 | -2.27515 | 18784 ft | 368 kts | 248° |
| 2026-04-30 11:48 | 40.71673 | -2.30479 | 18408 ft | 366 kts | 236° |
| 2026-04-30 11:48 | 40.70219 | -2.33205 | 18049 ft | 362 kts | 234° |
| 2026-04-30 11:49 | 40.68740 | -2.35873 | 17696 ft | 360 kts | 234° |
| 2026-04-30 11:49 | 40.67261 | -2.38523 | 17365 ft | 357 kts | 234° |
| 2026-04-30 11:49 | 40.65798 | -2.41153 | 17040 ft | 355 kts | 234° |
| 2026-04-30 11:49 | 40.64346 | -2.43779 | 16720 ft | 353 kts | 234° |
| 2026-04-30 11:50 | 40.62908 | -2.46391 | 16407 ft | 352 kts | 234° |
| 2026-04-30 11:50 | 40.61477 | -2.49001 | 16095 ft | 351 kts | 234° |
| 2026-04-30 11:50 | 40.60048 | -2.51609 | 15782 ft | 351 kts | 234° |
| 2026-04-30 11:50 | 40.58619 | -2.54217 | 15475 ft | 351 kts | 234° |
| 2026-04-30 11:51 | 40.57197 | -2.56815 | 15163 ft | 350 kts | 234° |
| 2026-04-30 11:51 | 40.55772 | -2.59414 | 14853 ft | 350 kts | 234° |
| 2026-04-30 11:51 | 40.54352 | -2.62005 | 14547 ft | 349 kts | 234° |
| 2026-04-30 11:51 | 40.52947 | -2.64565 | 14236 ft | 349 kts | 234° |
| 2026-04-30 11:52 | 40.51512 | -2.67179 | 13926 ft | 348 kts | 234° |
| 2026-04-30 11:52 | 40.50118 | -2.69715 | 13589 ft | 346 kts | 234° |
| 2026-04-30 11:52 | 40.48692 | -2.72307 | 13251 ft | 344 kts | 234° |
| 2026-04-30 11:52 | 40.47289 | -2.74855 | 12862 ft | 344 kts | 234° |
| 2026-04-30 11:53 | 40.45911 | -2.77356 | 12546 ft | 342 kts | 234° |
| 2026-04-30 11:53 | 40.44525 | -2.79871 | 12228 ft | 338 kts | 234° |
| 2026-04-30 11:53 | 40.43154 | -2.82354 | 11908 ft | 334 kts | 234° |
| 2026-04-30 11:53 | 40.41801 | -2.84804 | 11608 ft | 328 kts | 234° |
| 2026-04-30 11:54 | 40.40474 | -2.87204 | 11323 ft | 322 kts | 234° |
| 2026-04-30 11:54 | 40.39171 | -2.89562 | 11052 ft | 317 kts | 234° |
| 2026-04-30 11:54 | 40.37885 | -2.91885 | 10771 ft | 312 kts | 234° |
| 2026-04-30 11:54 | 40.36618 | -2.94172 | 10488 ft | 308 kts | 234° |
| 2026-04-30 11:55 | 40.35366 | -2.96431 | 10211 ft | 304 kts | 234° |
| 2026-04-30 11:55 | 40.34132 | -2.98657 | 9948 ft | 300 kts | 234° |
| 2026-04-30 11:55 | 40.32935 | -3.00814 | 9950 ft | 286 kts | 234° |
| 2026-04-30 11:55 | 40.31787 | -3.02881 | 9927 ft | 274 kts | 234° |
| 2026-04-30 11:56 | 40.30688 | -3.04860 | 9851 ft | 265 kts | 233° |
| 2026-04-30 11:56 | 40.29613 | -3.06794 | 9612 ft | 262 kts | 233° |
| 2026-04-30 11:56 | 40.28540 | -3.08721 | 9340 ft | 260 kts | 233° |
| 2026-04-30 11:56 | 40.27487 | -3.10610 | 9213 ft | 253 kts | 233° |
| 2026-04-30 11:57 | 40.26486 | -3.12465 | 9084 ft | 246 kts | 240° |
| 2026-04-30 11:57 | 40.26042 | -3.14593 | 8908 ft | 244 kts | 265° |
| 2026-04-30 11:57 | 40.26165 | -3.16804 | 8703 ft | 243 kts | 277° |
| 2026-04-30 11:57 | 40.26467 | -3.18983 | 8441 ft | 243 kts | 278° |
| 2026-04-30 11:58 | 40.26777 | -3.21160 | 8161 ft | 244 kts | 278° |
| 2026-04-30 11:58 | 40.27084 | -3.23350 | 7887 ft | 245 kts | 278° |
| 2026-04-30 11:58 | 40.27385 | -3.25540 | 7636 ft | 244 kts | 278° |
| 2026-04-30 11:58 | 40.27679 | -3.27729 | 7393 ft | 244 kts | 278° |
| 2026-04-30 11:59 | 40.27969 | -3.29920 | 7170 ft | 243 kts | 278° |
| 2026-04-30 11:59 | 40.28283 | -3.32078 | 7006 ft | 240 kts | 285° |
| 2026-04-30 11:59 | 40.29143 | -3.33924 | 6855 ft | 238 kts | 309° |
| 2026-04-30 11:59 | 40.30221 | -3.35542 | 6669 ft | 235 kts | 309° |
| 2026-04-30 12:00 | 40.31284 | -3.37170 | 6422 ft | 235 kts | 309° |
| 2026-04-30 12:00 | 40.32472 | -3.38640 | 6171 ft | 236 kts | 327° |
| 2026-04-30 12:00 | 40.33824 | -3.39761 | 6144 ft | 223 kts | 322° |
| 2026-04-30 12:00 | 40.35014 | -3.40981 | 5995 ft | 214 kts | 320° |
| 2026-04-30 12:01 | 40.36169 | -3.42189 | 5745 ft | 211 kts | 320° |
| 2026-04-30 12:01 | 40.37308 | -3.43361 | 5469 ft | 209 kts | 321° |
| 2026-04-30 12:01 | 40.38425 | -3.44499 | 5245 ft | 204 kts | 321° |
| 2026-04-30 12:01 | 40.39555 | -3.45644 | 4800 ft | 206 kts | 321° |
| 2026-04-30 12:02 | 40.40686 | -3.46799 | 4333 ft | 205 kts | 321° |
| 2026-04-30 12:02 | 40.41813 | -3.47939 | 3894 ft | 203 kts | 321° |
| 2026-04-30 12:02 | 40.42914 | -3.49080 | 3480 ft | 199 kts | 321° |
| 2026-04-30 12:02 | 40.43961 | -3.50133 | 3314 ft | 176 kts | 322° |
| 2026-04-30 12:03 | 40.44908 | -3.51044 | 3314 ft | 168 kts | 323° |
| 2026-04-30 12:03 | 40.46844 | -3.52898 | 3862 ft | 192 kts | 321° |
| 2026-04-30 12:03 | 40.47919 | -3.54030 | 4517 ft | 207 kts | 320° |
| 2026-04-30 12:04 | 40.49108 | -3.55273 | 4825 ft | 228 kts | 321° |
| 2026-04-30 12:04 | 40.50432 | -3.56624 | 5007 ft | 258 kts | 321° |
| 2026-04-30 12:04 | 40.51885 | -3.58079 | 4987 ft | 262 kts | 322° |
| 2026-04-30 12:04 | 40.53348 | -3.59532 | 5007 ft | 263 kts | 322° |
| 2026-04-30 12:05 | 40.54794 | -3.60964 | 4991 ft | 256 kts | 322° |
| 2026-04-30 12:05 | 40.56062 | -3.62504 | 4972 ft | 242 kts | 299° |
| 2026-04-30 12:05 | 40.56631 | -3.64488 | 5036 ft | 225 kts | 285° |
| 2026-04-30 12:05 | 40.57100 | -3.66412 | 5117 ft | 219 kts | 287° |
| 2026-04-30 12:06 | 40.57609 | -3.68343 | 5198 ft | 229 kts | 288° |
| 2026-04-30 12:06 | 40.58182 | -3.70433 | 5455 ft | 257 kts | 289° |
| 2026-04-30 12:06 | 40.58816 | -3.72698 | 5995 ft | 268 kts | 289° |
| 2026-04-30 12:06 | 40.59472 | -3.75018 | 5984 ft | 270 kts | 289° |
| 2026-04-30 12:07 | 40.60105 | -3.77338 | 6016 ft | 269 kts | 284° |
| 2026-04-30 12:07 | 40.60220 | -3.79759 | 6027 ft | 265 kts | 259° |
| 2026-04-30 12:07 | 40.59633 | -3.82058 | 6039 ft | 267 kts | 240° |
| 2026-04-30 12:07 | 40.58614 | -3.84110 | 6029 ft | 269 kts | 233° |
| 2026-04-30 12:08 | 40.57535 | -3.86077 | 6024 ft | 267 kts | 232° |
| 2026-04-30 12:08 | 40.56447 | -3.88044 | 6015 ft | 265 kts | 232° |
| 2026-04-30 12:08 | 40.55375 | -3.89994 | 6007 ft | 262 kts | 233° |
| 2026-04-30 12:08 | 40.54309 | -3.91947 | 6004 ft | 264 kts | 233° |
| 2026-04-30 12:09 | 40.53218 | -3.93876 | 6010 ft | 262 kts | 224° |
| 2026-04-30 12:09 | 40.51669 | -3.95029 | 6019 ft | 258 kts | 189° |
| 2026-04-30 12:09 | 40.49897 | -3.94889 | 6023 ft | 257 kts | 166° |
| 2026-04-30 12:09 | 40.48206 | -3.94133 | 6013 ft | 257 kts | 158° |
| 2026-04-30 12:10 | 40.46563 | -3.93212 | 6011 ft | 257 kts | 156° |
| 2026-04-30 12:10 | 40.44920 | -3.92263 | 6010 ft | 258 kts | 156° |
| 2026-04-30 12:10 | 40.43271 | -3.91314 | 6008 ft | 259 kts | 157° |
| 2026-04-30 12:10 | 40.41612 | -3.90371 | 6010 ft | 261 kts | 157° |
| 2026-04-30 12:11 | 40.39946 | -3.89433 | 6003 ft | 263 kts | 157° |
| 2026-04-30 12:11 | 40.38250 | -3.88485 | 6001 ft | 264 kts | 157° |
| 2026-04-30 12:11 | 40.36555 | -3.87543 | 6003 ft | 265 kts | 158° |
| 2026-04-30 12:11 | 40.34861 | -3.86605 | 5997 ft | 264 kts | 158° |
| 2026-04-30 12:12 | 40.33167 | -3.85670 | 5993 ft | 264 kts | 158° |
| 2026-04-30 12:12 | 40.31477 | -3.84739 | 5988 ft | 263 kts | 158° |
| 2026-04-30 12:12 | 40.29793 | -3.83812 | 5987 ft | 263 kts | 158° |
| 2026-04-30 12:12 | 40.28087 | -3.82874 | 5749 ft | 269 kts | 158° |
| 2026-04-30 12:13 | 40.26372 | -3.81932 | 5497 ft | 264 kts | 158° |
| 2026-04-30 12:13 | 40.24708 | -3.81019 | 5225 ft | 255 kts | 158° |
| 2026-04-30 12:13 | 40.23070 | -3.80132 | 5042 ft | 257 kts | 158° |
| 2026-04-30 12:13 | 40.21411 | -3.79245 | 5012 ft | 257 kts | 158° |
| 2026-04-30 12:14 | 40.19830 | -3.78251 | 4987 ft | 255 kts | 152° |
| 2026-04-30 12:14 | 40.18260 | -3.77132 | 4995 ft | 257 kts | 152° |
| 2026-04-30 12:14 | 40.16689 | -3.76002 | 4991 ft | 258 kts | 151° |
| 2026-04-30 12:14 | 40.15120 | -3.74871 | 4996 ft | 257 kts | 151° |
| 2026-04-30 12:15 | 40.13560 | -3.73732 | 4990 ft | 257 kts | 148° |
| 2026-04-30 12:15 | 40.12384 | -3.72027 | 4993 ft | 256 kts | 112° |
| 2026-04-30 12:15 | 40.12225 | -3.69761 | 4984 ft | 250 kts | 75° |
| 2026-04-30 12:15 | 40.13117 | -3.67905 | 4994 ft | 242 kts | 39° |
| 2026-04-30 12:16 | 40.14470 | -3.66643 | 5006 ft | 239 kts | 37° |
| 2026-04-30 12:16 | 40.15645 | -3.65123 | 4978 ft | 239 kts | 61° |
| 2026-04-30 12:16 | 40.16275 | -3.63131 | 5004 ft | 238 kts | 72° |
| 2026-04-30 12:16 | 40.16801 | -3.61080 | 4996 ft | 238 kts | 67° |
| 2026-04-30 12:17 | 40.18973 | -3.57727 | 4998 ft | 246 kts | 51° |
| 2026-04-30 12:17 | 40.19990 | -3.55942 | 4989 ft | 244 kts | 57° |
| 2026-04-30 12:17 | 40.20883 | -3.54071 | 4987 ft | 242 kts | 61° |
| 2026-04-30 12:18 | 40.21689 | -3.52151 | 4985 ft | 240 kts | 63° |
| 2026-04-30 12:18 | 40.22438 | -3.50205 | 4987 ft | 240 kts | 65° |
| 2026-04-30 12:18 | 40.23175 | -3.48165 | 5010 ft | 255 kts | 66° |
| 2026-04-30 12:18 | 40.23901 | -3.46056 | 4993 ft | 254 kts | 67° |
| 2026-04-30 12:19 | 40.24604 | -3.43950 | 4985 ft | 251 kts | 67° |
| 2026-04-30 12:19 | 40.25281 | -3.41893 | 4966 ft | 240 kts | 68° |
| 2026-04-30 12:19 | 40.25923 | -3.39936 | 4979 ft | 228 kts | 68° |
| 2026-04-30 12:19 | 40.26543 | -3.38041 | 4977 ft | 225 kts | 68° |
| 2026-04-30 12:20 | 40.27377 | -3.36383 | 4971 ft | 221 kts | 36° |
| 2026-04-30 12:20 | 40.28785 | -3.35786 | 4988 ft | 215 kts | 353° |
| 2026-04-30 12:20 | 40.30172 | -3.36505 | 5028 ft | 220 kts | 326° |
| 2026-04-30 12:20 | 40.31495 | -3.37583 | 5007 ft | 226 kts | 326° |
| 2026-04-30 12:21 | 40.32778 | -3.38749 | 5012 ft | 221 kts | 322° |
| 2026-04-30 12:21 | 40.33966 | -3.39937 | 5000 ft | 208 kts | 320° |
| 2026-04-30 12:21 | 40.35078 | -3.41079 | 4933 ft | 200 kts | 321° |
| 2026-04-30 12:21 | 40.36180 | -3.42206 | 4708 ft | 201 kts | 320° |
| 2026-04-30 12:22 | 40.37281 | -3.43333 | 4451 ft | 201 kts | 320° |
| 2026-04-30 12:22 | 40.38384 | -3.44460 | 4164 ft | 200 kts | 321° |
| 2026-04-30 12:22 | 40.39472 | -3.45570 | 3903 ft | 195 kts | 321° |
| 2026-04-30 12:22 | 40.40509 | -3.46629 | 3678 ft | 181 kts | 320° |
| 2026-04-30 12:23 | 40.41470 | -3.47611 | 3425 ft | 169 kts | 321° |
| 2026-04-30 12:23 | 40.42366 | -3.48525 | 3193 ft | 160 kts | 321° |
| 2026-04-30 12:23 | 40.43238 | -3.49417 | 3002 ft | 161 kts | 321° |
| 2026-04-30 12:23 | 40.44135 | -3.50332 | 2780 ft | 162 kts | 321° |
| 2026-04-30 12:24 | 40.45003 | -3.51218 | 2558 ft | 156 kts | 322° |
| 2026-04-30 12:24 | 40.45850 | -3.52084 | 2350 ft | 152 kts | 321° |
| 2026-04-30 12:24 | 40.46709 | -3.52962 | 2098 ft | 159 kts | 321° |
| 2026-04-30 12:24 | 40.47556 | -3.53825 | 1933 ft | 150 kts | 320° |
| 2026-04-30 12:25 | 40.48311 | -3.54591 | 1932 ft | 113 kts | 321° |
| 2026-04-30 12:25 | 40.48760 | -3.55052 | 1949 ft | 51 kts | 322° |
| 2026-04-30 12:25 | 40.48973 | -3.55268 | 1953 ft | 45 kts | 322° |
| 2026-04-30 12:25 | 40.49163 | -3.55483 | 1954 ft | 22 kts | 305° |
| 2026-04-30 12:26 | 40.49232 | -3.55658 | 1962 ft | 21 kts | 292° |
| 2026-04-30 12:26 | 40.49268 | -3.55773 | 1961 ft | 0 kts | 292° |
| 2026-04-30 12:29 | 40.49274 | -3.55792 | 1963 ft | 6 kts | 292° |
| 2026-04-30 12:29 | 40.49298 | -3.55865 | 1959 ft | 11 kts | 302° |
| 2026-04-30 12:30 | 40.49307 | -3.55954 | 1958 ft | 11 kts | 249° |
| 2026-04-30 12:30 | 40.49300 | -3.56063 | 1957 ft | 14 kts | 271° |
| 2026-04-30 12:30 | 40.49357 | -3.56139 | 1958 ft | 13 kts | 354° |
| 2026-04-30 12:30 | 40.49406 | -3.56189 | 1959 ft | 6 kts | 291° |
| 2026-04-30 12:31 | 40.49431 | -3.56236 | 1960 ft | 7 kts | 326° |
| 2026-04-30 12:31 | 40.49493 | -3.56246 | 1960 ft | 12 kts | 359° |
| 2026-04-30 12:31 | 40.49544 | -3.56271 | 1965 ft | 12 kts | 307° |
| 2026-04-30 12:31 | 40.49553 | -3.56408 | 1965 ft | 11 kts | 270° |
| 2026-04-30 12:32 | 40.49553 | -3.56475 | 1966 ft | 11 kts | 269° |
| 2026-04-30 12:32 | 40.49510 | -3.56543 | 1968 ft | 11 kts | 191° |
| 2026-04-30 12:32 | 40.49425 | -3.56545 | 1968 ft | 17 kts | 180° |
| 2026-04-30 12:32 | 40.49316 | -3.56544 | 1968 ft | 9 kts | 179° |
| 2026-04-30 12:33 | 40.49303 | -3.56559 | 1974 ft | 2 kts | 267° |
| 2026-04-30 12:33 | 40.49302 | -3.56581 | 1971 ft | 4 kts | 268° |
| 2026-04-30 12:33 | 40.49302 | -3.56619 | 1970 ft | 5 kts | 269° |
| 2026-04-30 12:33 | 40.49302 | -3.56640 | 1970 ft | 2 kts | 269° |
| 2026-04-30 12:34 | 40.49301 | -3.56653 | 1970 ft | 1 kts | 269° |
| 2026-04-30 12:34 | 40.49301 | -3.56658 | 1970 ft | 1 kts | 269° |
| 2026-04-30 12:34 | 40.49301 | -3.56660 | 1970 ft | 0 kts | 269° |